createdAt,value
2018-01-15T00:00:47.012Z,67.64
2018-01-15T00:03:15.387Z,67.76
2018-01-15T00:05:43.744Z,64.25
2018-01-15T00:08:12.110Z,64.12
2018-01-15T00:10:40.475Z,70.92
2018-01-15T00:13:08.838Z,67.94
2018-01-15T00:15:37.231Z,67.31
2018-01-15T00:18:05.584Z,65.05
2018-01-15T00:20:33.952Z,65.07
2018-01-15T00:23:02.335Z,64.18
2018-01-15T00:25:30.688Z,65.59
2018-01-15T00:27:59.078Z,65.55
2018-01-15T00:30:27.467Z,63.99
2018-01-15T00:32:55.810Z,63.78
2018-01-15T00:35:24.172Z,62.93
2018-01-15T00:37:52.541Z,63.47
2018-01-15T00:40:21.024Z,61.94
2018-01-15T00:42:49.430Z,63.79
2018-01-15T00:45:17.772Z,62.32
2018-01-15T00:47:46.129Z,63.41
2018-01-15T00:50:14.494Z,62.63
2018-01-15T00:52:42.886Z,67.49
2018-01-15T00:55:11.252Z,67.51
2018-01-15T00:57:39.621Z,67.20
2018-01-15T01:00:07.972Z,64.52
2018-01-15T01:02:36.344Z,65.86
2018-01-15T01:05:04.692Z,68.42
2018-01-15T01:07:33.093Z,65.12
2018-01-15T01:10:01.460Z,67.09
2018-01-15T01:12:29.828Z,64.85
2018-01-15T01:14:58.306Z,66.50
2018-01-15T01:17:26.655Z,65.61
2018-01-15T01:19:55.045Z,65.95
2018-01-15T01:22:23.404Z,65.55
2018-01-15T01:24:51.762Z,66.92
2018-01-15T01:27:20.119Z,66.06
2018-01-15T01:29:48.477Z,65.61
2018-01-15T01:32:16.879Z,68.90
2018-01-15T01:34:45.230Z,67.65
2018-01-15T01:37:13.603Z,68.27
2018-01-15T01:39:41.983Z,66.08
2018-01-15T01:42:10.335Z,67.50
2018-01-15T01:44:38.748Z,63.50
2018-01-15T01:47:07.101Z,64.28
2018-01-15T01:49:35.450Z,69.64
2018-01-15T01:52:03.808Z,65.46
2018-01-15T01:54:32.167Z,65.95
2018-01-15T01:57:00.656Z,67.16
2018-01-15T01:59:29.046Z,66.15
2018-01-15T02:01:57.399Z,66.15
2018-01-15T02:04:25.805Z,65.84
2018-01-15T02:06:54.149Z,64.07
2018-01-15T02:09:22.533Z,61.25
2018-01-15T02:11:50.898Z,64.16
2018-01-15T02:14:19.252Z,61.63
2018-01-15T02:16:47.613Z,62.69
2018-01-15T02:19:16.007Z,61.51
2018-01-15T02:21:44.388Z,61.74
2018-01-15T02:24:12.760Z,62.38
2018-01-15T02:26:41.115Z,64.65
2018-01-15T02:29:09.524Z,65.68
2018-01-15T02:31:37.850Z,61.41
2018-01-15T02:34:06.228Z,61.45
2018-01-15T02:36:34.610Z,62.51
2018-01-15T02:39:02.961Z,61.10
2018-01-15T02:41:31.317Z,59.88
2018-01-15T02:43:59.665Z,61.72
2018-01-15T02:46:28.022Z,60.76
2018-01-15T02:48:56.459Z,66.67
2018-01-15T02:51:24.824Z,64.38
2018-01-15T02:53:53.190Z,62.49
2018-01-15T02:56:21.541Z,64.97
2018-01-15T02:58:49.902Z,65.33
2018-01-15T03:01:18.294Z,63.69
2018-01-15T03:03:46.654Z,65.69
2018-01-15T03:06:15.008Z,68.94
2018-01-15T03:08:43.362Z,66.58
2018-01-15T03:11:11.713Z,67.10
2018-01-15T03:13:40.113Z,65.06
2018-01-15T03:16:08.467Z,65.96
2018-01-15T03:18:36.835Z,66.51
2018-01-15T03:21:05.236Z,64.91
2018-01-15T03:23:33.642Z,64.63
2018-01-15T03:26:02.021Z,63.68
2018-01-15T03:28:30.386Z,67.74
2018-01-15T03:30:58.816Z,65.55
2018-01-15T03:33:27.197Z,66.11
2018-01-15T03:35:55.543Z,64.16
2018-01-15T03:38:23.939Z,63.17
2018-01-15T03:40:52.313Z,60.70
2018-01-15T03:43:20.694Z,61.39
2018-01-15T03:45:49.054Z,63.34
2018-01-15T03:48:17.423Z,62.04
2018-01-15T03:50:45.790Z,60.44
2018-01-15T03:53:14.151Z,60.19
2018-01-15T03:55:42.503Z,59.74
2018-01-15T03:58:10.878Z,64.35
2018-01-15T04:00:39.235Z,62.30
2018-01-15T04:03:07.640Z,59.91
2018-01-15T04:05:35.996Z,59.22
2018-01-15T04:08:04.355Z,67.16
2018-01-15T04:10:32.806Z,66.46
2018-01-15T04:13:01.148Z,62.76
2018-01-15T04:15:29.502Z,65.30
2018-01-15T04:17:57.851Z,62.82
2018-01-15T04:20:26.211Z,64.20
2018-01-15T04:22:54.614Z,70.83
2018-01-15T04:25:22.970Z,64.19
2018-01-15T04:27:51.455Z,62.27
2018-01-15T04:30:19.831Z,61.62
2018-01-15T04:32:48.188Z,63.05
2018-01-15T04:35:16.577Z,64.28
2018-01-15T04:37:44.945Z,65.26
2018-01-15T04:40:13.303Z,63.77
2018-01-15T04:42:41.653Z,64.29
2018-01-15T04:45:10.012Z,62.86
2018-01-15T04:47:38.494Z,62.01
2018-01-15T04:50:06.851Z,62.53
2018-01-15T04:52:35.251Z,65.97
2018-01-15T04:55:03.607Z,65.75
2018-01-15T04:57:31.966Z,64.97
2018-01-15T05:00:00.351Z,63.84
2018-01-15T05:02:28.746Z,64.25
2018-01-15T05:04:57.113Z,68.86
2018-01-15T05:07:25.474Z,64.72
2018-01-15T05:09:53.831Z,65.26
2018-01-15T05:12:22.212Z,65.67
2018-01-15T05:14:50.578Z,65.99
2018-01-15T05:17:18.939Z,65.54
2018-01-15T05:19:47.283Z,63.62
2018-01-15T05:22:15.642Z,63.55
2018-01-15T05:24:44.004Z,65.20
2018-01-15T05:27:12.386Z,67.38
2018-01-15T05:29:40.858Z,66.03
2018-01-15T05:32:09.220Z,63.38
2018-01-15T05:34:37.579Z,63.34
2018-01-15T05:37:05.956Z,62.75
2018-01-15T05:39:34.306Z,61.47
2018-01-15T05:42:02.665Z,60.35
2018-01-15T05:44:31.070Z,59.70
2018-01-15T05:46:59.427Z,63.57
2018-01-15T05:49:27.835Z,68.39
2018-01-15T05:51:56.219Z,67.58
2018-01-15T05:54:24.575Z,66.89
2018-01-15T05:56:52.929Z,68.98
2018-01-15T05:59:21.331Z,65.82
2018-01-15T06:01:49.696Z,66.09
2018-01-15T06:04:18.087Z,69.13
2018-01-15T06:06:46.480Z,69.80
2018-01-15T06:09:14.827Z,65.08
2018-01-15T06:11:43.187Z,64.96
2018-01-15T06:14:11.582Z,65.05
2018-01-15T06:16:39.935Z,66.09
2018-01-15T06:19:08.320Z,69.60
2018-01-15T06:21:36.698Z,67.44
2018-01-15T06:24:05.111Z,67.36
2018-01-15T06:26:33.496Z,68.50
2018-01-15T06:29:01.848Z,67.59
2018-01-15T06:31:30.199Z,69.40
2018-01-15T06:33:58.561Z,65.08
2018-01-15T06:36:26.919Z,67.97
2018-01-15T06:38:55.394Z,68.31
2018-01-15T06:41:23.747Z,72.99
2018-01-15T06:43:52.114Z,68.20
2018-01-15T06:46:20.485Z,65.42
2018-01-15T06:48:48.852Z,74.65
2018-01-15T06:51:17.260Z,72.15
2018-01-15T06:53:45.639Z,70.62
2018-01-15T06:56:14.148Z,70.73
2018-01-15T06:58:42.506Z,71.65
2018-01-15T07:01:28.097Z,68.36
2018-01-15T07:03:56.447Z,71.49
2018-01-15T07:06:25.038Z,70.81
2018-01-15T07:08:53.389Z,72.60
2018-01-15T07:11:21.806Z,70.23
2018-01-15T07:13:50.183Z,72.67
2018-01-15T07:16:18.540Z,73.82
2018-01-15T07:18:46.908Z,73.86
2018-01-15T07:21:15.361Z,71.41
2018-01-15T07:23:43.770Z,72.59
2018-01-15T07:26:12.143Z,69.52
2018-01-15T07:28:40.508Z,73.51
2018-01-15T07:31:08.984Z,74.57
2018-01-15T07:33:37.363Z,71.47
2018-01-15T07:36:05.725Z,73.86
2018-01-15T07:38:34.088Z,73.61
2018-01-15T07:41:02.543Z,72.81
2018-01-15T07:43:30.905Z,70.46
2018-01-15T07:45:59.322Z,73.10
2018-01-15T07:48:27.674Z,72.93
2018-01-15T07:50:56.036Z,73.85
2018-01-15T07:53:24.457Z,73.14
2018-01-15T07:55:52.807Z,70.01
2018-01-15T07:58:21.258Z,72.05
2018-01-15T08:00:49.620Z,72.96
2018-01-15T08:03:17.986Z,74.36
2018-01-15T08:05:46.344Z,72.97
2018-01-15T08:08:14.724Z,70.84
2018-01-15T08:10:43.118Z,71.14
2018-01-15T08:13:11.637Z,71.07
2018-01-15T08:15:39.998Z,73.44
2018-01-15T08:18:08.367Z,69.97
2018-01-15T08:20:36.730Z,70.14
2018-01-15T08:23:05.112Z,72.24
2018-01-15T08:25:33.465Z,71.92
2018-01-15T08:28:01.815Z,73.12
2018-01-15T08:30:30.180Z,72.55
2018-01-15T08:32:58.560Z,72.73
2018-01-15T08:35:26.959Z,67.93
2018-01-15T08:37:55.345Z,68.72
2018-01-15T08:40:23.705Z,69.67
2018-01-15T08:42:52.082Z,70.21
2018-01-15T08:45:20.465Z,69.84
2018-01-15T08:47:48.835Z,69.38
2018-01-15T08:50:17.205Z,69.47
2018-01-15T08:52:45.640Z,70.55
2018-01-15T08:55:14.024Z,71.83
2018-01-15T08:57:42.443Z,71.51
2018-01-15T09:00:10.834Z,68.77
2018-01-15T09:02:39.233Z,70.72
2018-01-15T09:05:07.603Z,70.09
2018-01-15T09:07:35.964Z,70.41
2018-01-15T09:10:04.343Z,71.78
2018-01-15T09:12:32.742Z,71.28
2018-01-15T09:15:01.149Z,69.51
2018-01-15T09:17:29.528Z,71.36
2018-01-15T09:19:57.883Z,72.82
2018-01-15T09:22:26.242Z,69.60
2018-01-15T09:24:54.663Z,70.27
2018-01-15T09:27:23.014Z,69.61
2018-01-15T09:29:51.470Z,70.99
2018-01-15T09:32:19.836Z,70.39
2018-01-15T09:34:48.196Z,70.39
2018-01-15T09:37:16.559Z,68.90
2018-01-15T09:39:44.936Z,70.90
2018-01-15T09:42:13.313Z,64.74
2018-01-15T09:44:41.831Z,67.07
2018-01-15T09:47:10.214Z,70.29
2018-01-15T09:49:38.572Z,70.17
2018-01-15T09:52:06.995Z,67.47
2018-01-15T09:54:35.357Z,65.47
2018-01-15T09:57:03.736Z,69.53
2018-01-15T09:59:32.130Z,67.83
2018-01-15T10:02:00.496Z,68.89
2018-01-15T10:04:28.902Z,68.33
2018-01-15T10:06:57.263Z,70.14
2018-01-15T10:09:25.633Z,70.13
2018-01-15T10:11:54.022Z,66.26
2018-01-15T10:14:22.422Z,68.42
2018-01-15T10:16:50.782Z,68.53
2018-01-15T10:19:19.180Z,65.26
2018-01-15T10:21:47.552Z,65.04
2018-01-15T10:24:15.915Z,68.12
2018-01-15T10:26:44.309Z,66.83
2018-01-15T10:29:12.764Z,66.00
2018-01-15T10:31:41.240Z,67.71
2018-01-15T10:34:09.603Z,67.66
2018-01-15T10:36:38.016Z,65.78
2018-01-15T10:39:06.407Z,68.01
2018-01-15T10:41:34.771Z,67.33
2018-01-15T10:44:03.159Z,69.07
2018-01-15T10:46:31.553Z,66.43
2018-01-15T10:48:59.930Z,65.05
2018-01-15T10:51:28.289Z,67.50
2018-01-15T10:53:56.656Z,66.12
2018-01-15T10:56:25.040Z,66.82
2018-01-15T10:58:53.430Z,68.60
2018-01-15T11:01:27.504Z,66.18
2018-01-15T11:03:55.942Z,66.18
2018-01-15T11:06:25.164Z,65.51
2018-01-15T11:08:53.529Z,68.27
2018-01-15T11:11:21.925Z,67.71
2018-01-15T11:13:50.267Z,69.26
2018-01-15T11:16:18.641Z,71.25
2018-01-15T11:18:47.055Z,70.17
2018-01-15T11:21:15.611Z,68.43
2018-01-15T11:23:44.043Z,69.66
2018-01-15T11:26:12.500Z,68.18
2018-01-15T11:28:40.863Z,66.60
2018-01-15T11:31:09.222Z,70.57
2018-01-15T11:33:37.598Z,68.18
2018-01-15T11:36:05.964Z,69.79
2018-01-15T11:38:34.322Z,70.12
2018-01-15T11:41:02.715Z,72.84
2018-01-15T11:43:31.087Z,70.12
2018-01-15T11:45:59.468Z,70.84
2018-01-15T11:48:27.846Z,71.06
2018-01-15T11:50:56.215Z,69.38
2018-01-15T11:53:24.596Z,68.09
2018-01-15T11:55:52.984Z,70.63
2018-01-15T11:58:21.368Z,70.18
2018-01-15T12:00:49.777Z,72.11
2018-01-15T12:03:18.144Z,70.83
2018-01-15T12:05:46.495Z,70.15
2018-01-15T12:08:14.915Z,68.56
2018-01-15T12:10:43.275Z,67.43
2018-01-15T12:13:11.667Z,70.68
2018-01-15T12:15:40.157Z,70.27
2018-01-15T12:18:08.514Z,69.64
2018-01-15T12:20:36.881Z,68.67
2018-01-15T12:23:05.290Z,69.19
2018-01-15T12:25:33.666Z,68.43
2018-01-15T12:28:02.028Z,70.28
2018-01-15T12:30:30.398Z,71.03
2018-01-15T12:32:58.771Z,71.79
2018-01-15T12:35:27.141Z,71.02
2018-01-15T12:37:55.505Z,71.40
2018-01-15T12:40:23.894Z,71.32
2018-01-15T12:42:52.279Z,70.31
2018-01-15T12:45:20.635Z,69.57
2018-01-15T12:47:49.020Z,69.36
2018-01-15T12:50:17.580Z,70.97
2018-01-15T12:52:45.952Z,67.66
2018-01-15T12:55:14.321Z,72.18
2018-01-15T12:57:42.724Z,69.82
2018-01-15T13:02:46.235Z,71.80
2018-01-15T13:05:14.777Z,72.99
2018-01-15T13:07:54.867Z,71.55
2018-01-15T13:10:23.251Z,72.37
2018-01-15T13:12:51.667Z,68.87
2018-01-15T13:15:20.028Z,69.40
2018-01-15T13:17:48.385Z,69.71
2018-01-15T13:20:16.879Z,72.35
2018-01-15T13:22:45.380Z,69.21
2018-01-15T13:25:14.090Z,67.94
2018-01-15T13:27:44.282Z,67.74
2018-01-15T13:30:12.701Z,68.94
2018-01-15T13:32:42.277Z,70.00
2018-01-15T13:35:11.617Z,70.90
2018-01-15T13:37:41.810Z,70.11
2018-01-15T13:40:10.170Z,69.15
2018-01-15T13:42:38.711Z,66.74
2018-01-15T13:45:07.074Z,68.75
2018-01-15T13:47:35.448Z,69.22
2018-01-15T13:50:03.818Z,71.63
2018-01-15T13:52:32.193Z,68.42
2018-01-15T13:55:00.570Z,68.77
2018-01-15T13:57:28.930Z,70.53
2018-01-15T13:59:57.376Z,69.53
2018-01-15T14:02:25.739Z,73.04
2018-01-15T14:04:54.121Z,71.49
2018-01-15T14:07:22.526Z,70.40
2018-01-15T14:09:50.883Z,70.90
2018-01-15T14:12:19.252Z,70.66
2018-01-15T14:14:47.626Z,69.77
2018-01-15T14:17:15.984Z,68.77
2018-01-15T14:19:44.391Z,68.14
2018-01-15T14:22:12.808Z,69.12
2018-01-15T14:24:41.174Z,69.49
2018-01-15T14:27:09.533Z,69.71
2018-01-15T14:29:37.900Z,68.41
2018-01-15T14:32:06.291Z,67.32
2018-01-15T14:34:34.677Z,68.80
2018-01-15T14:37:03.048Z,69.54
2018-01-15T14:39:31.445Z,67.87
2018-01-15T14:41:59.810Z,68.63
2018-01-15T14:44:30.434Z,68.32
2018-01-15T14:46:58.817Z,73.75
2018-01-15T14:49:27.182Z,69.84
2018-01-15T14:51:55.559Z,72.80
2018-01-15T14:54:23.931Z,73.28
2018-01-15T14:56:52.451Z,70.18
2018-01-15T14:59:20.812Z,71.40
2018-01-15T15:01:49.183Z,69.78
2018-01-15T15:04:17.687Z,73.59
2018-01-15T15:06:46.058Z,73.97
2018-01-15T15:09:14.478Z,76.09
2018-01-15T15:11:42.863Z,72.41
2018-01-15T15:14:11.261Z,71.27
2018-01-15T15:16:39.999Z,71.95
2018-01-15T15:19:11.995Z,66.97
2018-01-15T15:21:40.698Z,70.73
2018-01-15T15:24:09.066Z,72.14
2018-01-15T15:26:37.464Z,66.39
2018-01-15T15:29:05.841Z,67.84
2018-01-15T15:31:36.086Z,67.20
2018-01-15T15:34:05.431Z,65.11
2018-01-15T15:36:33.795Z,66.76
2018-01-15T15:42:11.498Z,64.06
2018-01-15T15:47:37.131Z,64.74
2018-01-15T15:50:05.705Z,65.46
2018-01-15T15:52:34.130Z,67.76
2018-01-15T15:55:02.583Z,66.84
2018-01-15T15:57:30.963Z,70.11
2018-01-15T16:00:10.988Z,69.62
2018-01-15T16:02:39.861Z,69.02
2018-01-15T16:05:08.216Z,69.12
2018-01-15T16:07:36.739Z,68.10
2018-01-15T16:10:05.142Z,68.29
2018-01-15T16:12:34.439Z,67.02
2018-01-15T16:15:03.233Z,71.69
2018-01-15T16:17:33.157Z,68.43
2018-01-15T16:20:04.859Z,68.32
2018-01-15T16:22:36.805Z,69.00
2018-01-15T16:25:06.669Z,68.82
2018-01-15T16:27:35.167Z,70.81
2018-01-15T16:30:03.526Z,75.04
2018-01-15T16:32:31.918Z,70.63
2018-01-15T16:35:00.283Z,71.34
2018-01-15T16:37:29.929Z,67.69
2018-01-15T16:39:58.374Z,70.93
2018-01-15T16:42:26.732Z,69.39
2018-01-15T16:44:55.205Z,70.08
2018-01-15T16:47:23.555Z,70.19
2018-01-15T16:49:52.035Z,71.66
2018-01-15T16:52:20.392Z,71.30
2018-01-15T16:54:48.751Z,74.12
2018-01-15T16:57:17.116Z,69.23
2018-01-15T16:59:45.477Z,70.86
2018-01-15T17:02:13.884Z,70.34
2018-01-15T17:04:42.235Z,67.61
2018-01-15T17:07:10.621Z,70.03
2018-01-15T17:09:39.265Z,68.25
2018-01-15T17:12:07.658Z,68.49
2018-01-15T17:14:36.272Z,68.11
2018-01-15T17:17:04.647Z,68.94
2018-01-15T17:19:33.059Z,70.02
2018-01-15T17:22:01.411Z,68.93
2018-01-15T17:24:29.853Z,69.84
2018-01-15T17:26:58.235Z,69.09
2018-01-15T17:29:26.647Z,68.38
2018-01-15T17:31:55.105Z,74.26
2018-01-15T17:34:23.458Z,71.42
2018-01-15T17:37:10.326Z,72.27
2018-01-15T17:39:38.711Z,74.81
2018-01-15T17:42:07.071Z,72.77
2018-01-15T17:44:35.422Z,70.93
2018-01-15T17:47:07.098Z,71.43
2018-01-15T17:49:35.442Z,71.49
2018-01-15T17:52:03.871Z,75.33
2018-01-15T17:54:32.252Z,71.08
2018-01-15T17:57:00.664Z,71.52
2018-01-15T17:59:32.412Z,72.12
2018-01-15T18:02:00.969Z,73.93
2018-01-15T18:04:29.471Z,74.66
2018-01-15T18:06:57.921Z,73.28
2018-01-15T18:09:26.686Z,73.17
2018-01-15T18:15:22.506Z,75.22
2018-01-15T18:17:52.126Z,72.80
2018-01-15T18:20:20.516Z,71.04
2018-01-15T18:22:49.027Z,74.87
2018-01-15T18:25:17.382Z,75.02
2018-01-15T18:27:45.736Z,73.17
2018-01-15T18:30:14.107Z,71.64
2018-01-15T18:32:42.476Z,72.01
2018-01-15T18:35:17.530Z,71.27
2018-01-15T18:37:45.928Z,71.89
2018-01-15T18:40:14.300Z,70.55
2018-01-15T18:42:42.685Z,72.00
2018-01-15T18:45:11.039Z,72.41
2018-01-15T18:47:39.399Z,70.07
2018-01-15T18:50:07.757Z,70.43
2018-01-15T18:52:36.106Z,70.78
2018-01-15T18:55:04.627Z,68.80
2018-01-15T18:57:33.146Z,69.55
2018-01-15T19:00:01.513Z,72.19
2018-01-15T19:02:29.870Z,72.15
2018-01-15T19:04:58.248Z,71.51
2018-01-15T19:07:30.587Z,71.51
2018-01-15T19:09:58.943Z,69.34
2018-01-15T19:12:27.302Z,69.72
2018-01-15T19:14:55.675Z,71.45
2018-01-15T19:17:25.932Z,75.83
2018-01-15T19:19:54.347Z,71.78
2018-01-15T19:22:22.762Z,71.20
2018-01-15T19:24:51.160Z,72.32
2018-01-15T19:27:19.511Z,72.64
2018-01-15T19:29:47.874Z,75.21
2018-01-15T19:32:16.229Z,73.12
2018-01-15T19:34:50.081Z,75.58
2018-01-15T19:37:28.104Z,70.77
2018-01-15T19:40:00.569Z,74.59
2018-01-15T19:42:28.955Z,74.07
2018-01-15T19:45:02.851Z,74.26
2018-01-15T19:47:44.603Z,73.68
2018-01-15T19:50:20.489Z,72.21
2018-01-15T19:52:55.894Z,73.13
2018-01-15T19:55:32.439Z,72.29
2018-01-15T19:58:09.260Z,74.09
2018-01-15T20:03:30.813Z,73.00
2018-01-15T20:06:04.643Z,73.27
2018-01-15T20:08:38.689Z,72.83
2018-01-15T20:11:07.087Z,73.93
2018-01-15T20:13:53.333Z,72.96
2018-01-15T20:16:21.746Z,71.87
2018-01-15T20:18:59.982Z,73.39
2018-01-15T20:21:28.361Z,74.06
2018-01-15T20:23:56.871Z,75.93
2018-01-15T20:26:25.245Z,73.14
2018-01-15T20:28:54.507Z,75.82
2018-01-15T20:31:22.896Z,75.33
2018-01-15T20:33:51.294Z,73.61
2018-01-15T20:36:19.649Z,71.46
2018-01-15T20:38:48.063Z,71.37
2018-01-15T20:41:16.427Z,72.27
2018-01-15T20:43:44.833Z,71.20
2018-01-15T20:46:13.236Z,71.77
2018-01-15T20:48:41.806Z,73.56
2018-01-15T20:51:10.166Z,72.87
2018-01-15T20:53:38.520Z,71.50
2018-01-15T20:56:06.908Z,70.66
2018-01-15T20:58:35.307Z,71.19
2018-01-15T21:01:03.731Z,74.09
2018-01-15T21:03:32.091Z,74.30
2018-01-15T21:06:00.458Z,71.35
2018-01-15T21:08:28.856Z,71.90
2018-01-15T21:10:57.275Z,73.23
2018-01-15T21:13:25.647Z,72.45
2018-01-15T21:15:54.970Z,73.18
2018-01-15T21:18:24.264Z,74.11
2018-01-15T21:20:52.750Z,74.62
2018-01-15T21:23:21.111Z,74.71
2018-01-15T21:25:49.495Z,72.57
2018-01-15T21:28:18.131Z,71.46
2018-01-15T21:30:46.475Z,71.30
2018-01-15T21:33:14.831Z,70.67
2018-01-15T21:35:43.202Z,73.54
2018-01-15T21:38:11.590Z,72.98
2018-01-15T21:40:39.944Z,72.92
2018-01-15T21:43:08.314Z,73.82
2018-01-15T21:45:36.675Z,72.32
2018-01-15T21:48:05.030Z,73.65
2018-01-15T21:50:33.451Z,72.78
2018-01-15T21:53:01.800Z,76.45
2018-01-15T21:55:30.186Z,77.01
2018-01-15T21:57:58.547Z,75.89
2018-01-15T22:00:26.935Z,74.43
2018-01-15T22:02:55.290Z,74.71
2018-01-15T22:05:23.647Z,76.86
2018-01-15T22:07:52.022Z,76.13
2018-01-15T22:10:20.367Z,74.90
2018-01-15T22:12:48.745Z,75.23
2018-01-15T22:15:17.091Z,73.44
2018-01-15T22:17:45.455Z,74.48
2018-01-15T22:20:13.819Z,72.08
2018-01-15T22:22:42.216Z,71.82
2018-01-15T22:25:10.613Z,73.39
2018-01-15T22:27:38.958Z,72.99
2018-01-15T22:30:07.315Z,73.18
2018-01-15T22:32:35.677Z,72.67
2018-01-15T22:35:04.121Z,70.02
2018-01-15T22:37:32.522Z,70.31
2018-01-15T22:40:00.868Z,70.79
2018-01-15T22:42:29.226Z,71.31
2018-01-15T22:44:57.603Z,71.19
2018-01-15T22:47:25.970Z,73.95
2018-01-15T22:49:54.357Z,72.50
2018-01-15T22:52:22.710Z,72.87
2018-01-15T22:54:51.063Z,73.22
2018-01-15T22:57:19.426Z,71.73
2018-01-15T22:59:47.783Z,73.21
2018-01-15T23:02:16.169Z,73.77
2018-01-15T23:04:44.520Z,72.23
2018-01-15T23:07:12.998Z,73.23
2018-01-15T23:09:41.347Z,73.61
2018-01-15T23:12:09.710Z,73.52
2018-01-15T23:14:38.060Z,72.52
2018-01-15T23:17:06.415Z,72.34
2018-01-15T23:19:34.790Z,71.03
2018-01-15T23:22:03.147Z,71.69
2018-01-15T23:24:31.505Z,73.71
2018-01-15T23:26:59.846Z,71.88
2018-01-15T23:29:28.215Z,71.47
2018-01-15T23:31:56.594Z,72.91
2018-01-15T23:34:24.943Z,74.98
2018-01-15T23:36:53.293Z,74.45
2018-01-15T23:39:21.639Z,72.12
2018-01-15T23:41:49.994Z,74.37
2018-01-15T23:44:18.395Z,73.64
2018-01-15T23:46:46.743Z,73.78
2018-01-15T23:49:15.082Z,74.54
2018-01-15T23:51:43.466Z,70.09
2018-01-15T23:54:23.554Z,74.22
2018-01-15T23:56:51.942Z,73.52
2018-01-15T23:59:20.304Z,73.06
